首页
METAR-TAF:

METAR-TAF

机场 :

DuBois / Falls Creek, 宾夕法尼亚州, 美国

纬度: 41-11N, 经度: 078-54W, 海拔: 555米

当前天气观测

该预报发布于27分钟前的08:53 UTC
风速4节,风向西南
温度 -11°C
湿度 78%
气压 1034 hPa
能見度: 16.1公里
天空无云

METAR: KDUJ 120853Z AUTO 23004KT 10SM CLR M11/M14 A3052 RMK AO2 SLP365 T11061139 51011

时间: 04:20 (09:20 UTC)

预报

该预报发布于4小时和0分钟前的05:20 UTC
预报有效从12日的 06点(UTC)到 13日的 06点(UTC)
风速10节,风向西
能見度: 10公里
多云层高于3500英尺
从 12日的 0900点(UTC)
风速3节,风向多变
能見度: 10公里
天空无云
从 12日的 1500点(UTC)
风速5节,风向南转南东
能見度: 10公里
多云层高于25000英尺

TAF: KDUJ 120520Z 1206/1306 28010KT P6SM BKN035 FM120900 VRB03KT P6SM SKC FM121500 15005KT P6SM BKN250

超过4000个机场的气象观测和天气预报(METAR&TAF报告)。

可查询的气象台以黄色和红色小点在地图上表示。

将鼠标移到小点上方,可查看气象台名称。

然后点击查看天气观测和预报。

如需切换地图:点击带黑十字的绿色按钮放大地图;点击带横线的绿色按钮缩小地图;或者点击绿色箭头查看邻近地区的地图。


METAR-TAF: